Time;durP1;ratioP1;P1;durP2;ratioP2;P2;SDS_P1;SDS_P2;PMS_P1;PMS_P2;Temp;Humidity;BMP_temperature;BMP_pressure;BME280_temperature;BME280_humidity;BME280_pressure;Samples;Min_cycle;Max_cycle;Signal;HPM_P1;HPM_P2
2022/03/18 00:01:03;;;;;;;41.20;18.67;;;4.80;99.90;;;;;;4993389;28;20037;-85
2022/03/18 00:03:28;;;;;;;38.05;18.17;;;4.80;99.90;;;;;;4977215;28;20030;-85
2022/03/18 00:05:54;;;;;;;35.72;19.90;;;4.80;99.90;;;;;;4993540;28;20561;-85
2022/03/18 00:08:20;;;;;;;40.45;20.00;;;4.80;99.90;;;;;;4961260;28;20486;-85
2022/03/18 00:10:45;;;;;;;46.78;19.98;;;4.80;99.90;;;;;;4961389;28;20041;-85
2022/03/18 00:13:12;;;;;;;38.80;18.98;;;4.80;99.90;;;;;;4961353;28;20042;-85
2022/03/18 00:15:37;;;;;;;34.58;18.55;;;4.80;99.90;;;;;;4960754;28;20410;-85
2022/03/18 00:18:03;;;;;;;35.05;18.63;;;4.80;99.90;;;;;;4960836;28;20031;-85
2022/03/18 00:20:29;;;;;;;39.60;19.60;;;4.80;99.90;;;;;;4961349;28;20096;-85
2022/03/18 00:22:54;;;;;;;39.97;20.15;;;4.80;99.90;;;;;;4993594;28;20030;-85
2022/03/18 00:25:20;;;;;;;38.92;19.40;;;4.80;99.90;;;;;;4992703;28;20055;-85
2022/03/18 00:27:47;;;;;;;29.50;17.60;;;4.80;99.90;;;;;;4960503;28;20034;-85
2022/03/18 00:30:16;;;;;;;36.78;18.63;;;4.80;99.90;;;;;;4961031;28;20038;-85
2022/03/18 00:32:42;;;;;;;34.00;17.95;;;4.80;99.90;;;;;;4960465;28;20053;-85
2022/03/18 00:35:08;;;;;;;35.53;17.15;;;4.80;99.90;;;;;;4961123;28;20022;-85
2022/03/18 00:37:35;;;;;;;33.92;18.63;;;4.80;99.90;;;;;;4960615;28;20034;-84
2022/03/18 00:40:01;;;;;;;33.72;17.20;;;4.80;99.90;;;;;;4976998;28;20031;-85
2022/03/18 00:42:27;;;;;;;35.30;18.70;;;4.80;99.90;;;;;;4993226;28;20023;-85
2022/03/18 00:44:53;;;;;;;31.85;17.55;;;4.80;99.90;;;;;;4992695;28;20103;-85
2022/03/18 00:53:08;;;;;;;34.90;18.27;;;4.80;99.90;;;;;;4936643;29;20134;-85
2022/03/18 00:55:33;;;;;;;35.25;17.85;;;4.80;99.90;;;;;;4951935;28;20050;-86
2022/03/18 00:57:59;;;;;;;31.60;16.90;;;4.80;99.90;;;;;;4992407;28;20129;-86
2022/03/18 01:00:25;;;;;;;30.85;16.23;;;4.70;99.90;;;;;;4959795;28;20031;-85
2022/03/18 01:02:50;;;;;;;33.28;17.33;;;4.80;99.90;;;;;;4960002;28;20485;-85
2022/03/18 01:05:17;;;;;;;32.60;16.63;;;4.80;99.90;;;;;;4976476;28;20500;-85
2022/03/18 01:07:43;;;;;;;34.22;16.58;;;4.70;99.90;;;;;;4960308;28;20156;-85
2022/03/18 01:10:09;;;;;;;35.65;16.65;;;4.70;99.90;;;;;;4959962;28;20125;-85
2022/03/18 01:12:35;;;;;;;31.33;17.33;;;4.70;99.90;;;;;;4960137;28;20035;-85
2022/03/18 01:15:01;;;;;;;33.10;17.52;;;4.70;99.90;;;;;;4975842;28;20031;-84
2022/03/18 01:17:26;;;;;;;32.35;15.07;;;4.70;99.90;;;;;;4975452;28;20034;-85
2022/03/18 01:19:52;;;;;;;33.53;16.90;;;4.70;99.90;;;;;;4991962;28;20125;-85
2022/03/18 01:22:18;;;;;;;32.17;16.77;;;4.70;99.90;;;;;;4959939;28;20465;-85
2022/03/18 01:24:43;;;;;;;35.78;15.65;;;4.70;99.90;;;;;;4959833;28;20125;-85
2022/03/18 01:27:09;;;;;;;29.30;14.55;;;4.60;99.90;;;;;;4959544;28;20477;-85
2022/03/18 01:29:35;;;;;;;31.48;16.15;;;4.60;99.90;;;;;;4992183;28;20038;-85
2022/03/18 01:32:01;;;;;;;30.17;16.23;;;4.60;99.90;;;;;;4993297;28;20061;-85
2022/03/18 01:34:26;;;;;;;33.88;16.75;;;4.60;99.90;;;;;;4959951;28;20034;-85
2022/03/18 01:36:52;;;;;;;31.80;15.35;;;4.60;99.90;;;;;;4959214;28;20026;-85
2022/03/18 01:39:18;;;;;;;30.75;16.40;;;4.60;99.90;;;;;;4975946;28;20038;-85
2022/03/18 01:41:44;;;;;;;36.30;16.50;;;4.60;99.90;;;;;;4959920;28;20085;-85
2022/03/18 01:44:11;;;;;;;27.52;14.65;;;4.60;99.90;;;;;;4975961;28;20038;-84
2022/03/18 01:46:37;;;;;;;27.90;14.68;;;4.60;99.90;;;;;;4959963;28;20061;-85
2022/03/18 01:49:04;;;;;;;33.80;15.45;;;4.60;99.90;;;;;;4992049;28;20129;-85
2022/03/18 01:51:30;;;;;;;24.70;14.00;;;4.60;99.90;;;;;;4960135;28;20042;-85
2022/03/18 01:56:41;;;;;;;29.88;15.73;;;4.60;99.90;;;;;;4975736;28;20038;-84
2022/03/18 01:59:07;;;;;;;27.75;14.93;;;4.70;99.90;;;;;;4959291;28;20489;-85
2022/03/18 02:01:34;;;;;;;28.15;14.38;;;4.60;99.90;;;;;;4991898;28;20117;-85
2022/03/18 02:04:00;;;;;;;27.02;14.93;;;4.60;99.90;;;;;;4991988;28;20031;-84
2022/03/18 02:06:26;;;;;;;27.60;13.85;;;4.60;99.90;;;;;;4992985;28;20374;-85
2022/03/18 02:09:23;;;;;;;33.88;14.70;;;4.60;99.90;;;;;;4976015;28;20065;-85
2022/03/18 02:11:49;;;;;;;29.52;15.02;;;4.60;99.90;;;;;;4959971;28;20030;-85
2022/03/18 02:14:28;;;;;;;31.35;15.68;;;4.60;99.90;;;;;;4959171;28;20545;-85
2022/03/18 02:16:54;;;;;;;32.25;14.25;;;4.70;99.90;;;;;;4991847;28;20404;-85
2022/03/18 02:19:19;;;;;;;33.15;14.93;;;4.70;99.90;;;;;;4991816;28;20038;-85
2022/03/18 02:21:48;;;;;;;30.40;14.95;;;4.60;99.90;;;;;;4976582;28;20052;-85
2022/03/18 02:24:16;;;;;;;29.77;14.75;;;4.70;99.90;;;;;;4963287;28;20030;-85
2022/03/18 02:26:47;;;;;;;33.22;14.30;;;4.60;99.90;;;;;;4962778;28;20046;-84
2022/03/18 02:29:13;;;;;;;23.85;13.75;;;4.60;99.90;;;;;;4979142;28;20435;-85
2022/03/18 02:31:39;;;;;;;28.17;14.50;;;4.70;99.90;;;;;;4978757;28;20172;-85
2022/03/18 02:34:05;;;;;;;29.20;13.80;;;4.60;99.90;;;;;;4994788;28;20084;-85
2022/03/18 02:36:30;;;;;;;29.40;13.77;;;4.60;99.90;;;;;;4962367;28;20117;-85
2022/03/18 02:38:56;;;;;;;26.35;15.30;;;4.60;99.90;;;;;;4995774;28;20382;-84
2022/03/18 02:41:22;;;;;;;31.15;14.57;;;4.60;99.90;;;;;;4962561;28;20045;-84
2022/03/18 02:43:47;;;;;;;29.95;13.73;;;4.60;99.90;;;;;;4994913;28;20539;-85
2022/03/18 02:46:15;;;;;;;27.20;13.98;;;4.60;99.90;;;;;;4978721;28;20767;-84
2022/03/18 02:48:41;;;;;;;25.95;14.10;;;4.60;99.90;;;;;;4962409;28;20050;-84
2022/03/18 02:51:07;;;;;;;31.08;14.98;;;4.60;99.90;;;;;;4978370;28;20034;-84
2022/03/18 02:53:35;;;;;;;29.75;13.80;;;4.60;99.90;;;;;;4962231;28;20038;-85
2022/03/18 02:56:02;;;;;;;31.88;14.93;;;4.60;99.90;;;;;;4978225;28;20038;-85
2022/03/18 02:58:28;;;;;;;26.33;13.77;;;4.60;99.90;;;;;;4994828;28;20030;-85
2022/03/18 03:00:54;;;;;;;34.13;16.40;;;4.50;99.90;;;;;;4994974;28;20037;-85
2022/03/18 03:03:19;;;;;;;29.75;14.18;;;4.50;99.90;;;;;;4994891;28;20829;-84
2022/03/18 03:08:31;;;;;;;36.10;16.20;;;4.50;99.90;;;;;;4978176;28;20062;-85
2022/03/18 03:10:57;;;;;;;30.92;15.80;;;4.50;99.90;;;;;;4994595;28;20061;-85
2022/03/18 03:13:24;;;;;;;33.30;16.02;;;4.50;99.90;;;;;;4962180;28;20679;-84
2022/03/18 03:15:50;;;;;;;31.88;14.63;;;4.40;99.90;;;;;;4962080;28;20034;-85
2022/03/18 03:18:16;;;;;;;34.95;16.02;;;4.40;99.90;;;;;;4978229;28;20385;-84
2022/03/18 03:20:42;;;;;;;29.73;15.68;;;4.40;99.90;;;;;;4978377;28;20034;-85
2022/03/18 03:23:08;;;;;;;41.33;16.50;;;4.30;99.90;;;;;;4994478;28;20087;-85
2022/03/18 03:25:33;;;;;;;36.22;16.10;;;4.30;99.90;;;;;;4962163;28;20035;-85
2022/03/18 03:27:59;;;;;;;33.47;17.08;;;4.30;99.90;;;;;;4995353;28;20109;-85
2022/03/18 03:30:25;;;;;;;31.00;16.65;;;4.30;99.90;;;;;;4994429;28;20428;-84
2022/03/18 03:32:51;;;;;;;37.40;16.48;;;4.30;99.90;;;;;;4994166;28;20026;-85
2022/03/18 03:35:18;;;;;;;36.55;15.73;;;4.20;99.90;;;;;;4993923;28;20054;-85
2022/03/18 03:37:45;;;;;;;34.55;16.50;;;4.20;99.90;;;;;;4961613;28;20041;-85
2022/03/18 03:40:15;;;;;;;33.03;18.15;;;4.20;99.90;;;;;;4961715;28;20774;-85
2022/03/18 03:42:41;;;;;;;30.70;16.77;;;4.20;99.90;;;;;;4994005;28;20034;-85
2022/03/18 03:45:10;;;;;;;37.70;17.80;;;4.20;99.90;;;;;;4978122;28;20114;-85
2022/03/18 03:47:37;;;;;;;38.10;16.33;;;4.20;99.90;;;;;;4977762;28;20077;-85
2022/03/18 03:50:04;;;;;;;39.30;18.58;;;4.20;99.90;;;;;;4961836;28;20046;-85
2022/03/18 03:52:29;;;;;;;32.95;16.70;;;4.20;99.90;;;;;;4977930;28;20034;-85
2022/03/18 03:54:55;;;;;;;38.55;17.10;;;4.20;99.90;;;;;;4977875;28;20038;-85
2022/03/18 03:57:22;;;;;;;36.17;17.73;;;4.20;99.90;;;;;;4993413;28;20030;-85
2022/03/18 03:59:48;;;;;;;31.50;17.35;;;4.10;99.90;;;;;;4977764;28;20134;-85
2022/03/18 04:02:13;;;;;;;46.80;18.05;;;4.10;99.90;;;;;;4993455;28;20043;-85
2022/03/18 04:04:39;;;;;;;41.13;17.75;;;4.10;99.90;;;;;;4961394;28;20030;-85
2022/03/18 04:07:05;;;;;;;35.45;16.77;;;4.20;99.90;;;;;;4993494;28;20058;-85
2022/03/18 04:09:31;;;;;;;38.42;18.35;;;4.20;99.90;;;;;;4961235;28;20513;-85
2022/03/18 04:11:57;;;;;;;40.00;18.85;;;4.30;99.90;;;;;;4961102;28;20027;-85
2022/03/18 04:14:29;;;;;;;35.85;16.20;;;4.20;99.90;;;;;;4960437;28;20109;-85
2022/03/18 04:16:55;;;;;;;32.60;16.13;;;4.20;99.90;;;;;;4992592;28;20129;-85
2022/03/18 04:19:21;;;;;;;35.58;16.75;;;4.20;99.90;;;;;;4992897;28;20117;-85
2022/03/18 04:21:46;;;;;;;33.88;17.27;;;4.20;99.90;;;;;;4960781;28;20037;-85
2022/03/18 04:24:12;;;;;;;76.78;33.88;;;4.20;99.90;;;;;;4960825;28;20061;-85
2022/03/18 04:26:38;;;;;;;38.67;17.55;;;4.30;99.90;;;;;;4977008;28;20133;-85
2022/03/18 04:29:03;;;;;;;32.28;18.33;;;4.30;99.90;;;;;;4960330;28;20122;-85
2022/03/18 04:31:46;;;;;;;36.00;17.15;;;4.30;99.90;;;;;;4976742;28;20034;-85
2022/03/18 04:34:13;;;;;;;43.58;18.88;;;4.30;99.90;;;;;;4960506;28;20596;-85
2022/03/18 04:36:38;;;;;;;39.95;17.58;;;4.30;99.90;;;;;;4977038;28;20117;-85
2022/03/18 04:39:04;;;;;;;32.33;17.38;;;4.30;99.90;;;;;;4993189;28;20106;-84
2022/03/18 04:41:30;;;;;;;45.70;19.15;;;4.30;99.90;;;;;;4961044;28;20462;-85
2022/03/18 04:44:08;;;;;;;45.55;18.02;;;4.30;99.90;;;;;;4992363;28;20073;-84
2022/03/18 04:46:33;;;;;;;32.60;15.65;;;4.30;99.90;;;;;;4960409;28;20427;-85
2022/03/18 04:49:06;;;;;;;36.22;17.23;;;4.40;99.90;;;;;;4976512;28;20072;-85
2022/03/18 04:51:32;;;;;;;34.80;15.73;;;4.30;99.90;;;;;;4992405;28;20034;-85
2022/03/18 04:53:58;;;;;;;39.58;16.25;;;4.30;99.90;;;;;;4992962;28;20501;-84
2022/03/18 04:59:08;;;;;;;38.60;18.40;;;4.30;99.90;;;;;;4976708;28;20034;-85
2022/03/18 05:01:33;;;;;;;31.60;15.55;;;4.40;99.90;;;;;;4960747;28;20386;-85
2022/03/18 05:03:59;;;;;;;27.45;14.23;;;4.40;99.90;;;;;;4960230;28;20030;-84
2022/03/18 05:06:26;;;;;;;32.67;15.10;;;4.30;99.90;;;;;;4960166;28;20038;-85
2022/03/18 05:08:52;;;;;;;35.88;15.25;;;4.40;99.90;;;;;;4976038;28;20048;-85
2022/03/18 05:11:24;;;;;;;31.85;14.45;;;4.30;99.90;;;;;;4976198;28;20038;-85
2022/03/18 05:13:51;;;;;;;38.53;15.35;;;4.40;99.90;;;;;;4992354;28;20054;-85
2022/03/18 05:16:17;;;;;;;35.35;15.02;;;4.40;99.90;;;;;;4976311;28;20363;-85
2022/03/18 05:18:43;;;;;;;33.17;13.32;;;4.40;99.90;;;;;;4960156;28;20038;-85
2022/03/18 05:21:08;;;;;;;34.35;14.45;;;4.40;99.90;;;;;;4960469;28;20066;-84
2022/03/18 05:23:34;;;;;;;26.77;12.80;;;4.40;99.90;;;;;;4993910;28;20175;-85
2022/03/18 05:26:01;;;;;;;32.88;13.90;;;4.40;99.90;;;;;;4993912;28;20736;-85
2022/03/18 05:28:27;;;;;;;35.10;14.10;;;4.40;99.90;;;;;;4976045;28;20045;-85
2022/03/18 05:30:52;;;;;;;32.45;13.65;;;4.30;99.90;;;;;;4959709;28;20027;-86
2022/03/18 05:33:19;;;;;;;38.88;16.08;;;4.30;99.90;;;;;;4976097;28;20093;-85
2022/03/18 05:35:45;;;;;;;40.67;16.25;;;4.40;99.90;;;;;;4976820;28;20068;-88
2022/03/18 05:38:11;;;;;;;36.65;14.52;;;4.30;99.90;;;;;;4976714;28;20034;-87
2022/03/18 05:40:37;;;;;;;45.25;15.25;;;4.40;99.90;;;;;;4960940;28;20041;-88
2022/03/18 05:43:03;;;;;;;38.40;15.35;;;4.40;99.90;;;;;;4993105;28;20077;-88
2022/03/18 05:45:29;;;;;;;37.35;15.75;;;4.40;99.90;;;;;;4993286;28;20030;-88
2022/03/18 05:47:54;;;;;;;32.92;14.68;;;4.40;99.90;;;;;;4976672;28;20031;-88
2022/03/18 05:50:27;;;;;;;37.78;15.63;;;4.40;99.90;;;;;;4992606;28;20034;-88
2022/03/18 05:52:54;;;;;;;38.42;14.55;;;4.40;99.90;;;;;;4960233;28;20544;-88
2022/03/18 05:55:20;;;;;;;31.48;13.65;;;4.40;99.90;;;;;;4992639;28;20034;-88
2022/03/18 05:57:47;;;;;;;38.95;16.05;;;4.40;99.90;;;;;;4965236;28;20089;-88
2022/03/18 06:00:15;;;;;;;34.03;14.32;;;4.50;99.90;;;;;;4963813;28;20030;-88
2022/03/18 06:02:41;;;;;;;32.95;14.00;;;4.40;99.90;;;;;;4995230;28;20142;-89
2022/03/18 06:05:09;;;;;;;31.98;13.68;;;4.40;99.90;;;;;;4963571;28;20068;-89
2022/03/18 06:07:37;;;;;;;25.98;12.95;;;4.40;99.90;;;;;;4963318;28;20188;-89
2022/03/18 06:12:56;;;;;;;29.90;12.30;;;4.50;99.90;;;;;;4997550;28;20034;-89
2022/03/18 06:15:22;;;;;;;33.78;13.32;;;4.40;99.90;;;;;;4964124;28;20111;-88
2022/03/18 06:18:12;;;;;;;36.22;15.65;;;4.40;99.90;;;;;;4995897;28;20084;-88
2022/03/18 06:20:38;;;;;;;34.75;13.77;;;4.50;99.90;;;;;;4996039;28;20030;-89
2022/03/18 06:23:04;;;;;;;34.35;13.20;;;4.50;99.90;;;;;;4963263;28;20393;-88
2022/03/18 06:25:29;;;;;;;32.92;13.90;;;4.50;99.90;;;;;;4962863;28;20033;-89
2022/03/18 06:27:55;;;;;;;42.55;14.85;;;4.50;99.90;;;;;;4964126;28;20130;-89
2022/03/18 06:30:21;;;;;;;28.90;12.90;;;4.50;99.90;;;;;;4965840;28;20042;-89
2022/03/18 06:32:46;;;;;;;35.78;13.32;;;4.60;99.90;;;;;;4996093;28;20042;-89
2022/03/18 06:35:12;;;;;;;31.60;13.07;;;4.60;99.90;;;;;;4996099;28;20808;-88
2022/03/18 06:37:39;;;;;;;30.95;13.40;;;4.60;99.90;;;;;;4982292;28;20389;-89
2022/03/18 06:40:06;;;;;;;29.10;12.10;;;4.70;99.90;;;;;;4963088;28;20493;-89
2022/03/18 06:42:31;;;;;;;29.63;13.20;;;4.70;99.90;;;;;;4962867;28;20133;-88
2022/03/18 06:44:57;;;;;;;35.42;11.60;;;4.70;99.90;;;;;;4996841;28;20492;-89
2022/03/18 06:47:23;;;;;;;34.25;13.52;;;4.70;99.90;;;;;;4995145;28;20531;-89
2022/03/18 06:49:48;;;;;;;34.28;13.77;;;4.70;99.90;;;;;;4963766;28;20034;-91
2022/03/18 06:52:17;;;;;;;33.22;13.80;;;4.70;99.90;;;;;;4995745;28;20068;-90
2022/03/18 06:54:43;;;;;;;35.22;12.88;;;4.80;99.90;;;;;;4995839;28;20124;-89
2022/03/18 06:57:09;;;;;;;33.63;12.23;;;4.80;99.90;;;;;;4995894;28;20481;-89
2022/03/18 06:59:35;;;;;;;23.90;11.38;;;4.90;99.90;;;;;;4979705;28;20041;-89
2022/03/18 07:02:01;;;;;;;30.08;12.80;;;5.00;99.90;;;;;;4963449;28;20026;-89
2022/03/18 07:04:27;;;;;;;28.85;12.27;;;5.00;99.90;;;;;;4965009;28;20085;-89
2022/03/18 07:06:53;;;;;;;25.08;11.52;;;5.00;99.90;;;;;;4995481;28;20041;-89
2022/03/18 07:09:18;;;;;;;33.55;12.38;;;5.00;99.90;;;;;;4962757;28;20038;-89
2022/03/18 07:11:44;;;;;;;32.72;10.98;;;5.10;99.90;;;;;;4963258;28;20811;-89
2022/03/18 07:14:10;;;;;;;40.63;12.57;;;5.10;99.90;;;;;;4996123;28;20513;-90
2022/03/18 07:19:20;;;;;;;29.77;11.85;;;5.20;99.90;;;;;;4979378;28;20042;-90
2022/03/18 07:21:46;;;;;;;27.85;11.23;;;5.40;99.90;;;;;;4995065;28;20042;-88
2022/03/18 07:24:12;;;;;;;28.75;11.93;;;5.30;99.90;;;;;;4962779;28;20038;-90
2022/03/18 07:26:38;;;;;;;32.85;12.80;;;5.20;99.90;;;;;;4962705;28;20442;-89
2022/03/18 07:29:05;;;;;;;37.15;13.35;;;5.20;99.90;;;;;;4964257;28;20042;-89
2022/03/18 07:31:32;;;;;;;30.88;12.27;;;5.30;99.90;;;;;;4997226;28;20049;-89
2022/03/18 07:34:01;;;;;;;37.45;12.27;;;5.50;99.90;;;;;;4962641;28;20382;-89
2022/03/18 07:36:26;;;;;;;25.98;12.18;;;5.40;99.90;;;;;;4963230;28;20034;-90
2022/03/18 07:38:52;;;;;;;34.80;12.55;;;5.50;99.90;;;;;;4962902;28;20038;-90
2022/03/18 07:41:18;;;;;;;29.20;12.88;;;5.50;99.90;;;;;;4962788;28;20026;-89
2022/03/18 07:43:44;;;;;;;30.35;11.70;;;5.50;99.90;;;;;;4995239;28;20027;-89
2022/03/18 07:46:10;;;;;;;35.35;12.95;;;5.70;99.90;;;;;;4995520;28;20122;-88
2022/03/18 07:48:39;;;;;;;38.45;13.18;;;5.70;99.90;;;;;;4994782;28;20034;-89
2022/03/18 07:51:06;;;;;;;37.80;13.02;;;5.70;99.90;;;;;;4994741;28;20097;-89
2022/03/18 07:53:32;;;;;;;28.55;12.38;;;5.70;99.90;;;;;;4978646;28;20030;-90
2022/03/18 07:55:58;;;;;;;29.40;12.50;;;5.70;99.90;;;;;;4994471;28;20049;-89
2022/03/18 07:58:23;;;;;;;32.05;12.43;;;5.80;99.90;;;;;;4994619;28;20546;-90
2022/03/18 08:00:49;;;;;;;30.33;12.27;;;6.00;99.90;;;;;;4978660;28;20042;-89
2022/03/18 08:03:15;;;;;;;30.25;12.95;;;6.10;99.90;;;;;;4963863;28;20073;-89
2022/03/18 08:05:41;;;;;;;28.00;10.73;;;6.30;99.90;;;;;;4977856;28;20032;-89
2022/03/18 08:08:07;;;;;;;30.42;12.13;;;6.50;99.90;;;;;;4993802;28;20118;-89
2022/03/18 08:10:32;;;;;;;27.30;10.93;;;6.60;99.90;;;;;;4962151;28;20030;-89
2022/03/18 08:12:58;;;;;;;32.33;12.30;;;6.90;99.90;;;;;;4978696;28;20038;-89
2022/03/18 08:15:28;;;;;;;27.42;11.70;;;7.00;99.90;;;;;;4978563;28;20116;-89
2022/03/18 08:17:53;;;;;;;31.88;10.65;;;6.90;99.90;;;;;;4961890;28;20037;-89
2022/03/18 08:20:20;;;;;;;41.47;12.82;;;7.00;99.90;;;;;;4961635;28;20019;-89
2022/03/18 08:22:47;;;;;;;31.48;12.75;;;6.90;99.90;;;;;;4962589;28;20023;-89
2022/03/18 08:25:13;;;;;;;27.52;10.88;;;6.80;99.90;;;;;;4962557;28;20034;-90
2022/03/18 08:27:38;;;;;;;29.90;12.15;;;6.80;99.90;;;;;;4978578;28;20034;-89
2022/03/18 08:30:07;;;;;;;29.65;12.82;;;6.80;99.90;;;;;;4962541;28;20089;-89
2022/03/18 08:32:34;;;;;;;32.25;12.45;;;7.00;99.90;;;;;;4994326;28;20034;-89
2022/03/18 08:35:00;;;;;;;49.47;13.93;;;7.00;99.90;;;;;;4962056;28;20041;-90
2022/03/18 08:40:11;;;;;;;30.60;13.00;;;7.40;99.90;;;;;;4978362;28;20084;-89
2022/03/18 08:42:37;;;;;;;33.10;11.07;;;7.50;99.90;;;;;;4995494;28;20033;-89
2022/03/18 08:45:12;;;;;;;29.00;12.27;;;7.50;99.90;;;;;;4993645;28;20466;-90
2022/03/18 08:47:38;;;;;;;31.27;13.88;;;7.40;99.90;;;;;;4994152;28;20093;-90
2022/03/18 08:50:05;;;;;;;37.70;13.77;;;7.30;99.90;;;;;;4961693;28;20477;-90
2022/03/18 08:52:31;;;;;;;33.38;13.35;;;7.40;99.90;;;;;;4960987;28;20054;-89
2022/03/18 08:54:56;;;;;;;26.58;12.43;;;7.60;99.90;;;;;;4961464;28;20506;-90
2022/03/18 08:57:22;;;;;;;30.33;13.10;;;7.90;99.90;;;;;;4961567;28;20038;-89
2022/03/18 08:59:48;;;;;;;35.70;13.75;;;7.80;99.90;;;;;;4961554;28;20034;-89
2022/03/18 09:02:13;;;;;;;29.92;13.15;;;7.80;99.90;;;;;;4993648;28;20081;-88
2022/03/18 09:04:39;;;;;;;33.47;13.20;;;7.90;99.90;;;;;;4993783;28;20030;-88
2022/03/18 09:07:05;;;;;;;25.95;11.98;;;7.80;99.90;;;;;;4960980;28;20037;-90
2022/03/18 09:09:31;;;;;;;36.17;13.68;;;7.60;99.90;;;;;;4993744;28;20390;-89
2022/03/18 09:11:57;;;;;;;37.63;14.15;;;7.50;99.90;;;;;;4993676;28;20042;-89
2022/03/18 09:14:23;;;;;;;38.40;13.10;;;7.60;99.90;;;;;;4993719;28;20030;-89
2022/03/18 09:16:49;;;;;;;39.17;14.80;;;7.90;99.90;;;;;;4993235;28;20038;-89
2022/03/18 09:19:16;;;;;;;36.03;14.60;;;8.20;99.90;;;;;;4993228;28;20032;-90
2022/03/18 09:21:41;;;;;;;41.35;14.50;;;8.40;99.90;;;;;;4961442;28;20037;-89
2022/03/18 09:24:07;;;;;;;30.52;12.55;;;8.50;99.90;;;;;;4961251;28;20113;-88
2022/03/18 09:26:33;;;;;;;32.47;13.15;;;8.50;99.90;;;;;;4977377;28;20034;-89
2022/03/18 09:28:59;;;;;;;33.22;11.95;;;8.70;99.90;;;;;;4993347;28;20038;-89
2022/03/18 09:31:24;;;;;;;28.85;12.88;;;8.50;99.90;;;;;;4965095;28;20437;-90
2022/03/18 09:33:50;;;;;;;35.63;15.10;;;8.30;99.90;;;;;;4967571;28;20132;-90
2022/03/18 09:36:18;;;;;;;27.85;11.90;;;8.40;99.90;;;;;;4999657;28;20553;-90
2022/03/18 09:38:45;;;;;;;22.10;11.55;;;8.60;99.90;;;;;;4999656;28;20030;-90
2022/03/18 09:41:11;;;;;;;28.60;12.65;;;8.50;99.90;;;;;;4983446;28;20478;-90
2022/03/18 09:43:39;;;;;;;26.90;12.40;;;8.70;99.90;;;;;;4999514;28;20037;-88
2022/03/18 09:46:07;;;;;;;27.77;12.40;;;9.00;99.90;;;;;;4967007;28;20037;-90
2022/03/18 09:48:33;;;;;;;33.10;12.38;;;9.10;99.90;;;;;;4966977;28;20023;-89
2022/03/18 09:50:59;;;;;;;29.85;12.77;;;9.10;99.90;;;;;;4983715;28;20037;-89
2022/03/18 09:53:25;;;;;;;26.10;12.07;;;9.00;99.90;;;;;;4966934;28;20034;-90
2022/03/18 09:55:52;;;;;;;29.75;13.43;;;9.30;99.90;;;;;;4983298;28;20030;-89
2022/03/18 09:58:22;;;;;;;27.10;12.07;;;9.50;99.90;;;;;;4966316;28;20110;-90
2022/03/18 10:00:50;;;;;;;30.50;14.73;;;9.50;99.90;;;;;;4967643;28;20041;-89
2022/03/18 10:03:17;;;;;;;32.47;14.68;;;9.30;99.90;;;;;;4983391;28;20031;-90
2022/03/18 10:05:59;;;;;;;34.13;13.90;;;9.30;99.90;;;;;;4967692;28;20048;-89
2022/03/18 10:08:48;;;;;;;31.50;15.02;;;9.60;99.90;;;;;;4999284;28;20125;-89
2022/03/18 10:11:15;;;;;;;34.72;16.05;;;9.70;99.90;;;;;;4974701;28;20042;-89
2022/03/18 10:14:01;;;;;;;40.65;17.13;;;9.70;99.90;;;;;;4999631;28;20093;-89
2022/03/18 10:17:02;;;;;;;34.28;16.67;;;9.50;99.90;;;;;;4967520;28;20074;-90
2022/03/18 10:19:27;;;;;;;47.33;18.33;;;9.50;99.90;;;;;;4982252;28;20038;-89
2022/03/18 10:21:54;;;;;;;34.30;15.63;;;9.90;99.90;;;;;;4983738;28;20037;-91
2022/03/18 10:24:37;;;;;;;40.83;18.02;;;10.10;99.90;;;;;;4999573;28;20112;-89
2022/03/18 10:27:16;;;;;;;38.95;16.05;;;10.20;99.90;;;;;;4967212;28;20049;-89
2022/03/18 10:29:45;;;;;;;25.75;12.75;;;10.20;99.90;;;;;;4967597;28;20038;-89
2022/03/18 10:32:12;;;;;;;34.85;14.73;;;10.20;99.90;;;;;;4966917;28;20058;-89
2022/03/18 10:37:25;;;;;;;32.67;14.80;;;11.00;99.90;;;;;;4984812;28;20070;-89
2022/03/18 10:40:00;;;;;;;28.42;13.43;;;11.50;99.90;;;;;;4966735;28;20038;-91
2022/03/18 10:42:26;;;;;;;32.97;13.60;;;11.60;99.90;;;;;;4999045;28;20504;-89
2022/03/18 10:45:00;;;;;;;27.27;12.98;;;11.90;99.90;;;;;;4964057;28;20034;-90
2022/03/18 10:47:40;;;;;;;21.02;12.35;;;12.00;99.90;;;;;;4979781;28;20039;-89
2022/03/18 10:50:19;;;;;;;30.52;13.65;;;11.60;99.90;;;;;;4980115;28;20034;-89
2022/03/18 10:52:48;;;;;;;30.70;13.18;;;11.30;99.90;;;;;;4964675;28;20444;-89
2022/03/18 10:55:19;;;;;;;25.70;13.88;;;11.30;99.90;;;;;;4964018;28;20042;-88
2022/03/18 11:01:12;;;;;;;34.40;15.40;;;11.70;99.90;;;;;;4984803;28;20094;-90
2022/03/18 11:03:37;;;;;;;28.33;15.27;;;11.90;99.90;;;;;;4963644;28;20031;-89
2022/03/18 11:06:04;;;;;;;33.35;16.40;;;12.00;99.90;;;;;;4979694;28;20034;-89
2022/03/18 11:08:35;;;;;;;27.00;13.35;;;12.00;99.90;;;;;;4979762;28;20393;-90
2022/03/18 11:11:17;;;;;;;;;;;12.50;99.90;;;;;;4965396;28;20030;-89
2022/03/18 11:13:51;;;;;;;26.92;12.38;;;12.90;99.90;;;;;;4996766;28;19914;-90
2022/03/18 11:16:18;;;;;;;28.83;13.15;;;12.70;99.90;;;;;;5002066;28;20062;-89
2022/03/18 11:18:46;;;;;;;30.63;13.90;;;12.50;99.90;;;;;;4980127;28;20022;-90
2022/03/18 11:21:14;;;;;;;32.67;13.05;;;11.70;99.90;;;;;;4964376;28;20038;-90
2022/03/18 11:23:42;;;;;;;30.55;15.30;;;11.70;99.90;;;;;;4968774;28;20030;-89
2022/03/18 11:26:11;;;;;;;25.13;13.45;;;11.50;99.90;;;;;;4971078;28;20057;-91
2022/03/18 11:28:37;;;;;;;25.58;12.88;;;12.00;99.90;;;;;;4969529;28;20023;-89
2022/03/18 11:31:24;;;;;;;27.65;13.65;;;12.20;99.90;;;;;;4963521;28;20482;-89
2022/03/18 11:34:14;;;;;;;28.50;13.73;;;12.20;99.90;;;;;;4963057;28;20026;-90
2022/03/18 11:37:07;;;;;;;27.95;14.93;;;12.40;99.90;;;;;;4995082;28;20591;-89
2022/03/18 11:39:33;;;;;;;35.10;15.93;;;12.50;99.90;;;;;;4979327;28;20110;-90
2022/03/18 11:42:17;;;;;;;27.42;14.07;;;12.40;99.90;;;;;;4963428;28;20621;-89
2022/03/18 11:44:43;;;;;;;30.23;15.07;;;12.30;99.90;;;;;;4963164;28;20093;-89
2022/03/18 11:47:30;;;;;;;30.35;15.30;;;12.10;99.90;;;;;;4962814;28;20034;-90
2022/03/18 11:49:57;;;;;;;28.08;15.35;;;11.90;99.90;;;;;;4963235;28;20082;-89
2022/03/18 11:52:23;;;;;;;29.98;16.00;;;11.90;99.90;;;;;;4996333;28;20129;-89
2022/03/18 11:55:06;;;;;;;22.35;13.00;;;11.60;99.90;;;;;;4978150;28;20038;-89
2022/03/18 11:57:34;;;;;;;23.67;12.52;;;11.60;99.90;;;;;;4994661;28;20045;-89
2022/03/18 12:00:00;;;;;;;49.08;14.32;;;12.20;99.90;;;;;;4962865;28;20041;-89
2022/03/18 12:02:37;;;;;;;27.35;13.73;;;12.30;99.90;;;;;;4962555;28;20477;-89
2022/03/18 12:05:07;;;;;;;31.85;13.65;;;12.50;99.90;;;;;;4962555;28;20053;-89
2022/03/18 12:07:51;;;;;;;30.65;13.68;;;12.40;99.90;;;;;;4994353;28;20038;-89
2022/03/18 12:10:33;;;;;;;20.88;12.27;;;12.60;99.90;;;;;;4978498;28;20034;-90
2022/03/18 12:13:02;;;;;;;21.23;12.25;;;12.80;99.90;;;;;;4962058;28;20218;-89
2022/03/18 12:15:30;;;;;;;21.13;12.15;;;12.70;99.90;;;;;;4963440;28;20034;-89
2022/03/18 12:17:57;;;;;;;36.55;15.50;;;12.70;99.90;;;;;;4978801;28;20041;-90
2022/03/18 12:20:34;;;;;;;31.98;14.88;;;12.70;99.90;;;;;;4978924;28;20027;-89
2022/03/18 12:23:07;;;;;;;27.10;15.07;;;12.20;99.90;;;;;;4994827;28;20030;-90
2022/03/18 12:25:33;;;;;;;31.98;16.40;;;11.90;99.90;;;;;;4994745;28;20030;-89
2022/03/18 12:27:59;;;;;;;30.50;16.75;;;11.80;99.90;;;;;;4994300;28;20133;-89
2022/03/18 12:30:30;;;;;;;33.55;16.20;;;11.90;99.90;;;;;;4962091;28;20033;-91
2022/03/18 12:32:58;;;;;;;26.52;14.25;;;12.20;99.90;;;;;;4977736;28;20042;-89
2022/03/18 12:35:26;;;;;;;28.15;13.68;;;12.40;99.90;;;;;;4961836;28;20049;-90
2022/03/18 12:38:10;;;;;;;26.85;13.88;;;12.20;99.90;;;;;;4964076;28;20053;-89
2022/03/18 12:40:38;;;;;;;31.65;13.55;;;11.90;99.90;;;;;;4961715;28;20038;-89
2022/03/18 12:43:04;;;;;;;27.85;13.02;;;11.40;99.90;;;;;;4961542;28;20030;-90
2022/03/18 12:45:43;;;;;;;26.73;12.05;;;10.90;99.90;;;;;;4994320;28;20057;-90
2022/03/18 12:48:17;;;;;;;33.33;15.43;;;11.00;99.90;;;;;;4995069;28;20026;-89
2022/03/18 12:50:50;;;;;;;37.55;17.13;;;11.00;99.90;;;;;;4961593;28;20084;-91
2022/03/18 12:53:34;;;;;;;37.00;19.17;;;10.90;99.90;;;;;;4961597;28;20034;-89
2022/03/18 12:56:16;;;;;;;38.25;18.17;;;10.80;99.90;;;;;;4963089;28;20034;-89
2022/03/18 12:58:47;;;;;;;39.10;20.17;;;10.70;99.90;;;;;;4963597;28;20512;-90
2022/03/18 13:01:13;;;;;;;40.03;22.35;;;10.80;99.90;;;;;;4979217;28;20058;-89
2022/03/18 13:03:50;;;;;;;41.70;20.50;;;10.70;99.90;;;;;;4961304;28;20077;-89
2022/03/18 13:06:22;;;;;;;37.72;20.90;;;10.50;99.90;;;;;;4961157;28;20026;-90
2022/03/18 13:08:49;;;;;;;;;;;10.40;99.90;;;;;;4961815;28;20379;-89